Time;durP1;ratioP1;P1;durP2;ratioP2;P2;SDS_P1;SDS_P2;PMS_P1;PMS_P2;Temp;Humidity;BMP_temperature;BMP_pressure;BME280_temperature;BME280_humidity;BME280_pressure;Samples;Min_cycle;Max_cycle;Signal;HPM_P1;HPM_P2
2022/01/22 00:00:10;;;;;;;11.45;3.90;;;;;;;5.43;99.31;103443.25;5070291;28;20039;-77
2022/01/22 00:02:35;;;;;;;11.30;4.25;;;;;;;5.44;99.37;103442.41;5072688;28;20046;-79
2022/01/22 00:05:02;;;;;;;17.95;4.40;;;;;;;5.45;99.60;103447.66;5072379;28;20528;-76
2022/01/22 00:07:27;;;;;;;18.35;5.00;;;;;;;5.44;99.81;103445.03;5072412;28;20020;-79
2022/01/22 00:09:59;;;;;;;19.35;4.40;;;;;;;5.45;99.66;103439.78;5072432;28;20036;-76
2022/01/22 00:12:41;;;;;;;18.35;4.18;;;;;;;5.50;99.77;103437.22;5072173;28;20028;-76
2022/01/22 00:15:10;;;;;;;12.68;3.90;;;;;;;5.48;100.00;103444.22;5072015;28;20078;-79
2022/01/22 00:17:35;;;;;;;17.85;4.50;;;;;;;5.47;100.00;103439.81;5072457;28;20463;-79
2022/01/22 00:20:02;;;;;;;18.25;4.43;;;;;;;5.48;99.72;103423.19;5067377;28;20031;-79
2022/01/22 00:22:31;;;;;;;16.73;4.20;;;;;;;5.51;100.00;103423.22;5072380;28;20028;-80
2022/01/22 00:24:59;;;;;;;10.65;4.15;;;;;;;5.50;100.00;103414.47;5066154;28;20033;-77
2022/01/22 00:27:26;;;;;;;18.00;4.13;;;;;;;5.52;100.00;103406.59;5052404;28;20021;-79
2022/01/22 00:29:52;;;;;;;12.80;4.18;;;;;;;5.54;100.00;103418.06;5052494;28;20028;-79
2022/01/22 00:32:18;;;;;;;17.63;4.05;;;;;;;5.53;100.00;103418.91;5066688;28;20025;-80
2022/01/22 00:34:43;;;;;;;15.30;3.83;;;;;;;5.56;100.00;103429.44;5071710;28;20025;-77
2022/01/22 00:37:09;;;;;;;11.85;3.80;;;;;;;5.56;100.00;103421.56;5072164;28;20029;-78
2022/01/22 00:39:35;;;;;;;12.15;4.40;;;;;;;5.54;100.00;103425.94;5072093;28;20468;-79
2022/01/22 00:42:01;;;;;;;12.23;3.67;;;;;;;5.51;100.00;103418.88;5071576;28;20043;-78
2022/01/22 00:44:27;;;;;;;18.65;4.38;;;;;;;5.51;100.00;103415.34;5072543;28;20021;-79
2022/01/22 00:46:53;;;;;;;16.98;3.80;;;;;;;5.51;100.00;103415.34;5071737;28;20035;-79
2022/01/22 00:49:18;;;;;;;12.52;3.28;;;;;;;5.52;100.00;103411.88;5072051;28;20055;-79
2022/01/22 00:51:44;;;;;;;13.88;3.88;;;;;;;5.54;100.00;103413.66;5072057;28;20476;-79
2022/01/22 00:54:09;;;;;;;13.88;3.00;;;;;;;5.53;100.00;103425.03;5071887;28;20035;-79
2022/01/22 00:56:35;;;;;;;10.93;3.55;;;;;;;5.52;100.00;103415.38;5071364;28;20036;-79
2022/01/22 00:59:00;;;;;;;15.57;3.33;;;;;;;5.55;100.00;103419.78;5071558;28;20031;-78
2022/01/22 01:01:26;;;;;;;11.60;3.08;;;;;;;5.56;100.00;103411.06;5071956;28;20071;-77
2022/01/22 01:03:52;;;;;;;8.10;2.90;;;;;;;5.59;100.00;103416.38;5071485;28;20067;-80
2022/01/22 01:06:17;;;;;;;14.35;2.78;;;;;;;5.58;100.00;103419.88;5071714;28;20056;-79
2022/01/22 01:08:43;;;;;;;11.38;2.92;;;;;;;5.56;100.00;103416.31;5072132;28;20024;-79
2022/01/22 01:11:10;;;;;;;13.07;2.70;;;;;;;5.57;100.00;103412.84;5071831;28;20526;-79
2022/01/22 01:13:42;;;;;;;14.02;2.75;;;;;;;5.56;100.00;103421.56;5071379;28;20104;-78
2022/01/22 01:16:32;;;;;;;8.40;3.03;;;;;;;5.54;100.00;103421.53;5072056;28;20031;-79
2022/01/22 01:32:56;;;;;;;14.98;3.30;;;;;;;5.61;100.00;103398.88;5055558;28;20098;-79
2022/01/22 01:35:22;;;;;;;11.23;2.65;;;;;;;5.66;100.00;103401.59;5073121;28;20028;-79
2022/01/22 01:37:48;;;;;;;11.02;2.95;;;;;;;5.65;100.00;103405.97;5075217;28;20033;-79
2022/01/22 01:40:18;;;;;;;18.30;3.28;;;;;;;5.70;99.98;103411.28;5075216;28;20047;-79
2022/01/22 01:43:03;;;;;;;11.75;2.85;;;;;;;5.68;100.00;103405.16;5075250;28;20020;-77
2022/01/22 01:45:29;;;;;;;15.13;3.22;;;;;;;5.69;100.00;103410.44;5075035;28;20043;-79
2022/01/22 01:48:04;;;;;;;13.23;2.88;;;;;;;5.69;100.00;103410.44;5075456;28;20028;-76
2022/01/22 01:50:35;;;;;;;12.45;3.80;;;;;;;5.70;100.00;103427.06;5074783;28;20064;-77
2022/01/22 01:58:13;;;;;;;12.55;3.10;;;;;;;5.73;99.92;103421.88;5074740;28;20047;-79
2022/01/22 02:00:39;;;;;;;10.57;2.90;;;;;;;5.72;100.00;103428.00;5073855;28;20045;-79
2022/01/22 02:03:06;;;;;;;13.07;3.17;;;;;;;5.74;100.00;103415.75;5074747;28;20484;-78
2022/01/22 02:05:33;;;;;;;8.27;2.75;;;;;;;5.77;100.00;103407.03;5075016;28;20071;-77
2022/01/22 02:07:58;;;;;;;15.70;3.63;;;;;;;5.76;100.00;103419.28;5074764;28;20032;-79
2022/01/22 02:10:28;;;;;;;10.20;3.00;;;;;;;5.78;99.55;103420.22;5072716;28;20036;-79
2022/01/22 02:23:38;;;;;;;8.90;2.45;;;;;;;5.82;99.72;103415.88;5074070;28;20423;-80
2022/01/22 02:26:06;;;;;;;10.90;2.72;;;;;;;5.83;99.08;103418.56;5074313;28;20469;-80
2022/01/22 02:28:32;;;;;;;13.57;2.97;;;;;;;5.83;99.12;103407.13;5073698;28;20032;-78
2022/01/22 02:31:05;;;;;;;10.27;2.33;;;;;;;5.85;99.38;103402.78;5074252;28;20059;-79
2022/01/22 02:33:41;;;;;;;11.90;2.53;;;;;;;5.84;99.20;103401.00;5073322;28;20071;-78
2022/01/22 02:36:17;;;;;;;10.07;2.33;;;;;;;5.83;99.82;103407.13;5074549;28;20117;-79
2022/01/22 02:38:58;;;;;;;7.47;2.33;;;;;;;5.85;99.75;103402.78;5073745;28;20020;-79
2022/01/22 02:41:25;;;;;;;7.93;2.23;;;;;;;5.86;100.00;103407.19;5074187;28;20024;-79
2022/01/22 02:43:53;;;;;;;7.72;2.28;;;;;;;5.89;99.76;103408.09;5073533;28;20033;-79
2022/01/22 02:46:23;;;;;;;11.48;2.08;;;;;;;5.89;99.34;103408.09;5073832;28;20468;-78
2022/01/22 02:48:48;;;;;;;9.23;2.25;;;;;;;5.91;99.75;103406.41;5073684;28;20107;-78
2022/01/22 02:51:14;;;;;;;12.77;2.60;;;;;;;5.90;100.00;103404.63;5073900;28;20108;-78
2022/01/22 02:53:40;;;;;;;8.93;2.25;;;;;;;5.87;100.00;103409.84;5073317;28;20021;-79
2022/01/22 02:56:05;;;;;;;7.07;2.30;;;;;;;5.88;100.00;103410.72;5073864;28;20124;-79
2022/01/22 02:58:31;;;;;;;7.47;2.30;;;;;;;5.87;100.00;103407.22;5073603;28;20455;-78
2022/01/22 03:00:56;;;;;;;6.78;2.60;;;;;;;5.85;100.00;103411.53;5073085;28;20044;-80
2022/01/22 03:03:21;;;;;;;15.30;3.95;;;;;;;5.85;100.00;103408.03;5073562;28;20369;-76
2022/01/22 03:05:47;;;;;;;14.10;2.78;;;;;;;5.85;100.00;103406.28;5072825;28;20024;-77
2022/01/22 03:08:14;;;;;;;10.10;2.60;;;;;;;5.84;100.00;103408.91;5073386;28;20123;-78
2022/01/22 03:10:43;;;;;;;16.65;3.30;;;;;;;5.84;100.00;103406.28;5073453;28;20107;-77
2022/01/22 03:15:59;;;;;;;14.10;3.40;;;;;;;5.87;100.00;103409.84;5073218;28;20056;-77
2022/01/22 03:18:53;;;;;;;15.38;2.47;;;;;;;5.90;100.00;103414.25;5073337;28;20020;-79
2022/01/22 03:29:15;;;;;;;10.73;2.53;;;;;;;5.96;100.00;103422.25;5073036;28;20089;-79
2022/01/22 03:31:42;;;;;;;9.10;2.45;;;;;;;5.98;100.00;103422.28;5072927;28;20511;-77
2022/01/22 03:34:07;;;;;;;13.85;2.75;;;;;;;5.97;100.00;103416.16;5073123;28;20028;-80
2022/01/22 03:36:34;;;;;;;12.05;2.70;;;;;;;5.96;100.00;103419.63;5072274;28;20480;-79
2022/01/22 03:39:02;;;;;;;15.35;2.60;;;;;;;5.95;100.00;103420.47;5072773;28;20028;-79
2022/01/22 03:41:27;;;;;;;16.85;3.20;;;;;;;5.93;100.00;103422.19;5073242;28;20024;-78
2022/01/22 03:43:54;;;;;;;14.57;2.92;;;;;;;5.94;100.00;103413.44;5072772;28;20016;-79
2022/01/22 03:46:20;;;;;;;13.80;3.15;;;;;;;5.95;100.00;103415.22;5072587;28;20138;-77
2022/01/22 03:48:45;;;;;;;8.27;3.13;;;;;;;5.94;100.00;103415.22;5072110;28;20037;-79
2022/01/22 03:51:11;;;;;;;13.25;3.17;;;;;;;5.93;100.00;103418.69;5072613;28;20040;-79
2022/01/22 03:53:36;;;;;;;13.57;2.55;;;;;;;5.95;100.00;103422.25;5072914;28;20032;-77
2022/01/22 03:56:04;;;;;;;15.32;2.60;;;;;;;5.96;100.00;103427.53;5071865;28;20036;-77
2022/01/22 03:58:35;;;;;;;6.70;2.20;;;;;;;5.96;100.00;103418.72;5070158;28;20074;-76
2022/01/22 04:04:30;;;;;;;9.35;2.20;;;;;;;5.98;100.00;103427.53;5050115;28;20189;-79
2022/01/22 04:09:12;;;;;;;11.20;2.35;;;;;;;5.98;100.00;103423.19;5032688;28;20041;-78
2022/01/22 04:11:42;;;;;;;13.10;2.38;;;;;;;5.98;100.00;103425.81;5030438;28;20030;-77
2022/01/22 04:14:17;;;;;;;8.98;2.33;;;;;;;5.98;100.00;103420.56;5030519;28;20121;-77
2022/01/22 04:16:57;;;;;;;13.57;2.50;;;;;;;6.00;100.00;103428.50;5030330;28;20440;-79
2022/01/22 04:24:52;;;;;;;13.90;2.67;;;;;;;6.00;100.00;103426.72;5030699;28;20064;-78
2022/01/22 04:27:23;;;;;;;12.07;2.70;;;;;;;5.99;100.00;103431.97;5030270;28;20044;-79
2022/01/22 04:29:49;;;;;;;10.45;2.40;;;;;;;5.97;100.00;103428.38;5032229;28;20041;-77
2022/01/22 04:32:15;;;;;;;12.82;2.38;;;;;;;5.97;100.00;103436.28;5030099;28;20061;-79
2022/01/22 04:34:40;;;;;;;14.60;2.00;;;;;;;5.95;100.00;103436.25;5029664;28;20076;-79
2022/01/22 04:37:06;;;;;;;9.52;2.10;;;;;;;5.96;100.00;103440.66;5030115;28;20112;-79
2022/01/22 04:39:31;;;;;;;11.20;2.45;;;;;;;5.96;100.00;103445.03;5033155;28;20029;-78
2022/01/22 04:41:57;;;;;;;12.85;2.67;;;;;;;5.99;100.00;103439.88;5072337;28;20017;-79
2022/01/22 04:44:26;;;;;;;12.30;2.45;;;;;;;5.99;100.00;103438.09;5072483;28;20048;-77
2022/01/22 04:57:20;;;;;;;13.90;2.25;;;;;;;6.02;100.00;103413.59;5074135;28;20530;-78
2022/01/22 04:59:45;;;;;;;10.73;2.30;;;;;;;6.03;100.00;103420.63;5075806;28;20021;-78
2022/01/22 05:02:11;;;;;;;10.35;2.28;;;;;;;6.02;100.00;103418.84;5075423;28;20058;-77
2022/01/22 05:04:36;;;;;;;8.32;2.25;;;;;;;6.06;100.00;103424.22;5075639;28;20036;-79
2022/01/22 05:07:02;;;;;;;14.18;2.72;;;;;;;6.04;100.00;103431.19;5076078;28;20028;-79
2022/01/22 05:09:28;;;;;;;10.68;3.03;;;;;;;6.03;100.00;103421.50;5075808;28;20024;-79
2022/01/22 05:11:54;;;;;;;5.18;1.90;;;;;;;6.05;100.00;103413.66;5075369;28;20531;-78
2022/01/22 05:14:19;;;;;;;7.15;2.67;;;;;;;6.04;100.00;103414.53;5075775;28;20056;-77
2022/01/22 05:16:45;;;;;;;6.43;2.00;;;;;;;6.05;99.95;103413.66;5075933;28;20055;-79
2022/01/22 05:19:15;;;;;;;3.72;1.67;;;;;;;6.04;99.13;103410.13;5075880;28;20100;-79
2022/01/22 05:21:43;;;;;;;5.78;1.88;;;;;;;6.08;99.55;103421.59;5075095;28;20044;-78
2022/01/22 05:24:13;;;;;;;8.52;2.22;;;;;;;6.09;99.50;103411.94;5075241;28;20108;-78
2022/01/22 05:37:06;;;;;;;8.88;2.42;;;;;;;6.10;98.57;103406.72;5075426;28;20036;-77
2022/01/22 05:39:34;;;;;;;8.52;2.67;;;;;;;6.08;98.90;103411.06;5075501;28;20119;-79
2022/01/22 05:42:01;;;;;;;10.20;2.00;;;;;;;6.10;99.01;103419.88;5075521;28;20024;-76
2022/01/22 05:44:29;;;;;;;12.55;2.63;;;;;;;6.09;98.73;103412.84;5074637;28;20029;-78
2022/01/22 05:46:57;;;;;;;10.63;2.85;;;;;;;6.09;99.14;103427.72;5075256;28;20027;-77
2022/01/22 05:49:25;;;;;;;7.25;2.35;;;;;;;6.10;99.60;103429.50;5075293;28;20051;-79
2022/01/22 05:51:53;;;;;;;12.50;2.72;;;;;;;6.06;98.82;103428.56;5074872;28;20025;-78
2022/01/22 05:59:40;;;;;;;9.88;2.22;;;;;;;6.08;99.58;103429.47;5074896;28;20487;-76
2022/01/22 06:02:17;;;;;;;6.72;2.17;;;;;;;6.09;99.24;103430.34;5063941;28;20044;-77
2022/01/22 06:04:43;;;;;;;6.13;2.17;;;;;;;6.08;100.00;103434.75;5073712;28;20087;-78
2022/01/22 06:07:10;;;;;;;10.27;2.20;;;;;;;6.05;99.83;103439.97;5074821;28;20116;-76
2022/01/22 06:09:40;;;;;;;10.02;2.25;;;;;;;6.04;100.00;103441.69;5074769;28;20071;-78
2022/01/22 06:14:32;;;;;;;11.02;2.90;;;;;;;6.05;100.00;103442.59;5074541;28;20056;-78
2022/01/22 06:16:58;;;;;;;9.85;2.70;;;;;;;6.09;100.00;103432.97;5074475;28;20066;-76
2022/01/22 06:19:23;;;;;;;16.25;2.72;;;;;;;6.07;100.00;103438.22;5074554;28;20032;-77
2022/01/22 06:21:52;;;;;;;10.23;2.30;;;;;;;6.03;100.00;103439.06;5074490;28;20016;-77
2022/01/22 06:24:21;;;;;;;10.30;2.50;;;;;;;6.02;100.00;103445.16;5074593;28;20078;-75
2022/01/22 06:26:48;;;;;;;8.45;2.35;;;;;;;6.02;100.00;103446.06;5073635;28;20116;-77
2022/01/22 06:29:14;;;;;;;10.45;2.60;;;;;;;6.03;100.00;103455.72;5074293;28;20033;-78
2022/01/22 06:31:39;;;;;;;9.73;2.53;;;;;;;6.02;100.00;103451.34;5074240;28;20033;-77
2022/01/22 06:34:05;;;;;;;14.35;2.83;;;;;;;6.01;100.00;103451.28;5074158;28;20082;-77
2022/01/22 06:36:31;;;;;;;11.07;3.15;;;;;;;6.02;100.00;103445.16;5073574;28;20373;-76
2022/01/22 06:39:10;;;;;;;9.82;2.85;;;;;;;6.03;100.00;103458.34;5076985;28;20020;-78
2022/01/22 06:41:44;;;;;;;10.18;3.40;;;;;;;6.06;100.00;103460.13;5064271;28;20036;-78
2022/01/22 06:44:17;;;;;;;14.30;3.33;;;;;;;6.05;100.00;103461.00;5056501;28;20090;-76
2022/01/22 06:46:45;;;;;;;16.33;5.35;;;;;;;6.09;100.00;103467.19;5066780;28;20041;-75
2022/01/22 06:49:10;;;;;;;14.07;3.47;;;;;;;6.11;100.00;103466.34;5073837;28;20376;-78
2022/01/22 06:51:36;;;;;;;16.40;3.30;;;;;;;6.12;100.00;103462.00;5073904;28;20021;-76
2022/01/22 06:54:03;;;;;;;13.55;4.05;;;;;;;6.10;100.00;103463.69;5066710;28;20086;-76
2022/01/22 06:56:30;;;;;;;13.45;3.10;;;;;;;6.09;100.00;103465.47;5062214;28;20110;-77
2022/01/22 06:58:56;;;;;;;16.25;3.55;;;;;;;6.10;100.00;103475.13;5073471;28;20028;-78
2022/01/22 07:01:22;;;;;;;10.82;3.40;;;;;;;6.11;100.00;103478.63;5073385;28;20120;-78
2022/01/22 07:03:47;;;;;;;11.32;3.50;;;;;;;6.13;100.00;103466.41;5073723;28;20103;-78
2022/01/22 07:06:12;;;;;;;12.18;3.67;;;;;;;6.12;100.00;103477.78;5073687;28;20028;-76
2022/01/22 07:08:38;;;;;;;12.73;3.72;;;;;;;6.13;100.00;103471.66;5072580;28;20032;-77
2022/01/22 07:11:03;;;;;;;10.70;4.20;;;;;;;6.14;100.00;103473.41;5073694;28;20425;-76
2022/01/22 07:13:28;;;;;;;12.77;4.15;;;;;;;6.13;100.00;103472.53;5073753;28;20054;-78
2022/01/22 07:15:54;;;;;;;12.13;3.67;;;;;;;6.13;100.00;103472.53;5073632;28;20024;-77
2022/01/22 07:18:19;;;;;;;12.77;3.72;;;;;;;6.13;100.00;103479.56;5072967;28;20035;-77
2022/01/22 07:20:45;;;;;;;13.40;3.53;;;;;;;6.18;100.00;103477.88;5072657;28;20074;-77
2022/01/22 07:23:30;;;;;;;14.60;3.72;;;;;;;6.19;100.00;103475.28;5072978;28;20530;-77
2022/01/22 07:25:56;;;;;;;12.45;3.70;;;;;;;6.21;100.00;103470.94;5062299;28;20021;-76
2022/01/22 07:28:21;;;;;;;9.07;3.75;;;;;;;6.23;100.00;103470.94;5063579;28;20035;-77
2022/01/22 07:30:48;;;;;;;8.60;3.47;;;;;;;6.25;100.00;103458.69;5072791;28;20028;-77
2022/01/22 07:33:14;;;;;;;9.10;4.00;;;;;;;6.29;99.90;103459.63;5073205;28;20055;-77
2022/01/22 07:35:40;;;;;;;13.73;3.97;;;;;;;6.29;99.87;103468.41;5073163;28;20024;-78
2022/01/22 07:38:05;;;;;;;10.18;3.28;;;;;;;6.28;99.50;103461.38;5071860;28;20032;-75
2022/01/22 07:40:31;;;;;;;11.23;4.03;;;;;;;6.29;99.46;103464.88;5054046;28;20063;-76
2022/01/22 07:42:56;;;;;;;10.68;3.65;;;;;;;6.30;99.55;103464.91;5063225;28;20365;-77
2022/01/22 07:45:22;;;;;;;11.65;3.45;;;;;;;6.31;100.00;103461.41;5071481;28;20038;-76
2022/01/22 07:47:47;;;;;;;10.48;3.25;;;;;;;6.30;99.60;103459.63;5076545;28;20032;-76
2022/01/22 07:50:13;;;;;;;9.38;3.30;;;;;;;6.29;99.98;103455.25;5072447;28;20365;-76
2022/01/22 07:52:38;;;;;;;12.00;3.50;;;;;;;6.29;99.40;103457.88;5072129;28;20032;-78
2022/01/22 07:55:06;;;;;;;19.55;4.07;;;;;;;6.33;100.00;103451.81;5072745;28;20021;-77
2022/01/22 07:57:31;;;;;;;8.75;4.20;;;;;;;6.35;100.00;103452.69;5072658;28;20077;-77
2022/01/22 07:59:57;;;;;;;10.38;3.60;;;;;;;6.39;99.83;103456.25;5072275;28;20513;-77
2022/01/22 08:02:22;;;;;;;12.48;3.50;;;;;;;6.40;99.31;103458.03;5065232;28;20066;-75
2022/01/22 08:04:47;;;;;;;11.05;3.63;;;;;;;6.38;100.00;103455.38;5061411;28;20033;-76
2022/01/22 08:07:13;;;;;;;15.82;4.63;;;;;;;6.38;100.00;103447.50;5062603;28;20028;-76
2022/01/22 08:09:38;;;;;;;15.23;5.75;;;;;;;6.42;100.00;103448.44;5062066;28;20480;-76
2022/01/22 08:12:04;;;;;;;15.85;5.90;;;;;;;6.40;100.00;103451.00;5052343;28;20013;-76
2022/01/22 08:14:29;;;;;;;17.80;6.50;;;;;;;6.38;100.00;103442.22;5057776;28;20095;-78
2022/01/22 08:16:54;;;;;;;19.10;7.28;;;;;;;6.39;100.00;103453.63;5059191;28;20027;-77
2022/01/22 08:19:20;;;;;;;13.82;5.38;;;;;;;6.37;99.65;103448.34;5070054;28;20036;-78
2022/01/22 08:21:46;;;;;;;14.45;5.22;;;;;;;6.42;99.74;103458.97;5072366;28;20025;-78
2022/01/22 08:24:14;;;;;;;11.95;5.20;;;;;;;6.42;99.79;103456.31;5071000;28;20024;-77
2022/01/22 08:26:46;;;;;;;20.80;8.45;;;;;;;6.40;99.82;103453.66;5070775;28;20460;-76
2022/01/22 08:29:12;;;;;;;17.42;7.25;;;;;;;6.43;99.85;103458.06;5071566;28;20024;-77
2022/01/22 08:31:47;;;;;;;16.25;6.07;;;;;;;6.43;99.87;103457.19;5072151;28;20032;-76
2022/01/22 08:36:57;;;;;;;13.43;4.47;;;;;;;6.43;100.00;103458.06;5076515;28;20039;-77
2022/01/22 08:39:22;;;;;;;15.15;5.22;;;;;;;6.43;99.93;103465.97;5069163;28;20029;-76
2022/01/22 08:41:47;;;;;;;17.90;5.25;;;;;;;6.47;100.00;103464.25;5075505;28;20021;-76
2022/01/22 08:44:13;;;;;;;9.55;4.22;;;;;;;6.48;99.07;103460.78;5067156;28;20025;-75
2022/01/22 08:46:39;;;;;;;10.20;4.40;;;;;;;6.47;98.96;103470.44;5066203;28;20513;-76
2022/01/22 08:49:05;;;;;;;11.43;5.78;;;;;;;6.47;99.04;103473.06;5069860;28;20065;-76
2022/01/22 08:51:37;;;;;;;13.93;5.50;;;;;;;6.47;99.06;103469.53;5074559;28;20124;-76
2022/01/22 08:54:02;;;;;;;19.02;11.90;;;;;;;6.49;98.89;103473.97;5076504;28;20033;-76
2022/01/22 08:56:29;;;;;;;10.73;4.65;;;;;;;6.49;98.96;103479.22;5075091;28;20099;-77
2022/01/22 08:58:55;;;;;;;14.38;8.80;;;;;;;6.52;98.95;103473.13;5075607;28;20468;-76
2022/01/22 09:01:20;;;;;;;12.32;5.65;;;;;;;6.54;99.51;103476.66;5064469;28;20032;-76
2022/01/22 09:03:48;;;;;;;16.42;5.50;;;;;;;6.54;98.85;103484.56;5075119;28;20424;-78
2022/01/22 09:06:13;;;;;;;10.05;4.32;;;;;;;6.58;98.88;103480.25;5075980;28;20021;-78
2022/01/22 09:08:39;;;;;;;11.80;4.63;;;;;;;6.61;98.53;103475.00;5072840;28;20024;-79
2022/01/22 09:11:06;;;;;;;10.02;4.53;;;;;;;6.63;98.27;103479.41;5074805;28;20024;-76
2022/01/22 09:13:32;;;;;;;10.43;5.15;;;;;;;6.60;97.71;103479.41;5069925;28;20044;-78
2022/01/22 09:15:57;;;;;;;11.30;4.38;;;;;;;6.59;98.18;103487.28;5063478;28;20032;-78
2022/01/22 09:18:23;;;;;;;10.98;4.32;;;;;;;6.59;97.92;103490.78;5075080;28;20048;-78
2022/01/22 09:23:15;;;;;;;12.32;5.00;;;;;;;6.67;97.60;103496.16;5076098;28;20029;-78
2022/01/22 09:25:41;;;;;;;11.20;4.18;;;;;;;6.68;97.72;103493.53;5075032;28;20020;-77
2022/01/22 09:28:07;;;;;;;19.90;6.82;;;;;;;6.71;97.40;103500.59;5072997;28;20086;-76
2022/01/22 09:30:34;;;;;;;11.60;5.72;;;;;;;6.71;97.96;103500.59;5071156;28;20482;-77
2022/01/22 09:32:59;;;;;;;11.43;4.85;;;;;;;6.70;97.72;103501.47;5092594;28;20065;-78
2022/01/22 09:35:24;;;;;;;12.18;5.80;;;;;;;6.67;98.32;103504.94;5076634;28;20480;-76
2022/01/22 09:37:50;;;;;;;14.73;4.65;;;;;;;6.67;98.26;103512.81;5075183;28;20375;-78
2022/01/22 09:40:15;;;;;;;10.73;4.60;;;;;;;6.67;98.49;103522.50;5068929;28;20540;-78
2022/01/22 09:42:41;;;;;;;9.25;4.30;;;;;;;6.67;97.88;103512.81;5073227;28;20051;-76
2022/01/22 09:45:08;;;;;;;13.07;4.72;;;;;;;6.71;98.13;103519.03;5074887;28;20024;-75
2022/01/22 09:47:35;;;;;;;12.80;4.85;;;;;;;6.72;98.06;103520.81;5075025;28;20032;-76
2022/01/22 09:50:00;;;;;;;15.68;5.15;;;;;;;6.75;97.74;103526.09;5074881;28;20029;-78
2022/01/22 09:52:26;;;;;;;12.65;4.63;;;;;;;6.76;97.55;103534.91;5074263;28;20029;-78
2022/01/22 09:54:51;;;;;;;10.95;4.70;;;;;;;6.77;97.46;103527.03;5066281;28;20025;-78
2022/01/22 09:57:17;;;;;;;10.90;4.80;;;;;;;6.87;97.27;103528.06;5059542;28;20017;-74
2022/01/22 09:59:42;;;;;;;11.60;4.75;;;;;;;6.94;97.30;103523.75;5074399;28;20032;-77
2022/01/22 10:02:15;;;;;;;12.23;5.20;;;;;;;6.98;97.13;103515.00;5074823;28;20493;-75
2022/01/22 10:04:42;;;;;;;9.82;4.57;;;;;;;6.96;96.94;103520.25;5075040;28;20040;-76
2022/01/22 10:07:18;;;;;;;12.93;5.10;;;;;;;6.99;96.69;103516.78;5075077;28;20070;-77
2022/01/22 10:10:00;;;;;;;12.27;5.13;;;;;;;7.07;96.65;103528.28;5073555;28;20037;-78
2022/01/22 10:12:27;;;;;;;;;;;;;;;7.11;96.25;103529.22;5074876;28;20024;-78
2022/01/22 10:15:11;;;;;;;15.57;4.93;;;;;;;7.14;95.99;103531.94;5074508;28;20367;-77
2022/01/22 10:17:46;;;;;;;14.45;4.88;;;;;;;7.12;96.26;103531.88;5074860;28;20024;-76
2022/01/22 10:20:20;;;;;;;16.42;4.82;;;;;;;7.14;96.38;103532.78;5074276;28;20488;-77
2022/01/22 10:22:46;;;;;;;11.60;4.93;;;;;;;7.16;96.47;103533.72;5074595;28;20020;-78
2022/01/22 10:25:54;;;;;;;10.90;5.22;;;;;;;7.21;96.60;103547.84;5074402;28;20103;-78
2022/01/22 10:28:25;;;;;;;11.20;4.45;;;;;;;7.19;96.37;103549.56;5011938;28;20041;-77
2022/01/22 10:30:55;;;;;;;11.90;5.13;;;;;;;7.24;96.41;103547.00;5012482;28;20038;-78
2022/01/22 10:33:34;;;;;;;11.90;4.63;;;;;;;7.27;96.15;103547.00;5012453;28;20034;-78
2022/01/22 10:36:17;;;;;;;13.63;5.50;;;;;;;7.24;95.97;103540.81;5011164;28;20398;-78
2022/01/22 10:38:50;;;;;;;11.32;4.43;;;;;;;7.23;95.72;103542.56;5012004;28;20029;-76
2022/01/22 10:41:19;;;;;;;15.75;5.03;;;;;;;7.20;94.91;103542.53;5011371;28;20053;-77
2022/01/22 10:43:53;;;;;;;10.77;5.00;;;;;;;7.24;94.25;103554.00;5007724;28;20397;-77
2022/01/22 10:46:32;;;;;;;12.35;4.80;;;;;;;7.22;94.26;103544.34;5007082;28;20037;-78
2022/01/22 10:49:07;;;;;;;14.93;5.25;;;;;;;7.21;93.66;103539.94;5009561;28;20045;-76
2022/01/22 10:51:45;;;;;;;17.13;5.60;;;;;;;7.22;94.02;103540.78;5011136;28;20034;-77
2022/01/22 10:54:11;;;;;;;14.05;5.00;;;;;;;7.30;94.10;103535.63;5011344;28;20034;-76
2022/01/22 10:56:39;;;;;;;14.20;5.18;;;;;;;7.37;93.85;103529.56;5011718;28;20100;-77
2022/01/22 10:59:08;;;;;;;13.88;4.85;;;;;;;7.36;93.42;103547.13;5011328;28;20118;-77
2022/01/22 11:01:53;;;;;;;11.63;5.15;;;;;;;7.37;93.18;103538.34;5027097;28;20072;-77
2022/01/22 11:04:24;;;;;;;16.88;5.80;;;;;;;7.34;92.92;103548.88;5073120;28;20407;-77
2022/01/22 11:06:58;;;;;;;16.67;5.23;;;;;;;7.34;93.08;103537.41;5073265;28;20024;-76
2022/01/22 11:09:26;;;;;;;16.63;5.47;;;;;;;7.33;93.44;103536.56;5073678;28;20298;-77
2022/01/22 11:11:52;;;;;;;12.82;5.70;;;;;;;7.37;93.78;103533.06;5073049;28;20369;-76
2022/01/22 11:14:19;;;;;;;18.48;5.68;;;;;;;7.37;93.46;103525.16;5072971;28;20021;-78
2022/01/22 11:16:47;;;;;;;14.63;5.88;;;;;;;7.37;93.00;103532.19;5073466;28;20341;-78
2022/01/22 11:19:21;;;;;;;11.68;5.03;;;;;;;7.41;93.29;103531.38;5056388;28;20089;-77
2022/01/22 11:21:51;;;;;;;15.40;6.15;;;;;;;7.36;92.97;103536.56;5072964;28;20034;-77
2022/01/22 11:24:20;;;;;;;13.88;6.30;;;;;;;7.34;93.49;103546.22;5072895;28;20028;-78
2022/01/22 11:26:57;;;;;;;15.63;7.22;;;;;;;7.34;93.66;103559.41;5072059;28;20483;-78
2022/01/22 11:29:26;;;;;;;15.23;6.82;;;;;;;7.32;93.72;103555.00;5072894;28;20047;-77
2022/01/22 11:31:53;;;;;;;18.27;8.25;;;;;;;7.27;93.54;103543.50;5072752;28;20024;-77
2022/01/22 11:34:23;;;;;;;13.40;7.47;;;;;;;7.22;93.95;103549.59;5072730;28;20112;-77
2022/01/22 11:36:59;;;;;;;20.85;7.38;;;;;;;7.21;94.20;103558.38;5072817;28;20407;-78
2022/01/22 11:39:25;;;;;;;17.88;7.43;;;;;;;7.20;94.67;103545.19;5066417;28;20028;-78
2022/01/22 11:41:58;;;;;;;11.75;7.30;;;;;;;7.15;94.92;103549.50;5067372;28;20040;-77
2022/01/22 11:44:34;;;;;;;14.57;8.23;;;;;;;7.18;95.15;103553.03;5070188;28;20073;-77
2022/01/22 11:47:12;;;;;;;13.50;7.38;;;;;;;7.19;95.25;103549.56;5067752;28;20028;-76
2022/01/22 11:49:38;;;;;;;17.50;8.50;;;;;;;7.21;94.94;103544.28;5067000;28;20032;-74
2022/01/22 11:52:12;;;;;;;21.63;8.98;;;;;;;7.18;95.55;103547.78;5069880;28;20024;-78
2022/01/22 11:55:00;;;;;;;12.75;7.40;;;;;;;7.15;95.03;103550.38;5070263;28;20441;-75
2022/01/22 11:57:34;;;;;;;19.60;8.18;;;;;;;7.17;95.22;103547.75;5072016;28;20029;-75
2022/01/22 12:00:44;;;;;;;15.18;8.55;;;;;;;7.12;95.44;103545.06;5071842;28;20033;-75
2022/01/22 12:03:09;;;;;;;14.25;8.07;;;;;;;7.13;95.12;103544.19;4993593;28;20057;-79
2022/01/22 12:05:56;;;;;;;14.30;8.88;;;;;;;7.12;95.25;103539.78;5009905;28;20037;-78
2022/01/22 12:08:22;;;;;;;12.80;7.90;;;;;;;7.16;94.58;103540.72;4994928;28;20541;-79
2022/01/22 12:16:40;;;;;;;19.10;7.95;;;;;;;7.12;94.22;103541.53;4968489;28;20125;-79
2022/01/22 12:19:48;;;;;;;14.93;9.15;;;;;;;7.05;94.28;103536.19;4966041;28;20049;-78
2022/01/22 12:22:35;;;;;;;19.33;9.70;;;;;;;6.98;95.18;103530.81;4968916;28;20109;-79
2022/01/22 12:25:23;;;;;;;19.15;9.95;;;;;;;6.97;95.91;103531.69;4961667;28;20841;-79
2022/01/22 12:27:51;;;;;;;15.93;10.30;;;;;;;7.01;95.39;103533.50;4970033;28;20170;-79
2022/01/22 12:30:36;;;;;;;18.77;10.93;;;;;;;6.92;95.87;103536.91;4970076;28;20039;-79
2022/01/22 12:33:02;;;;;;;29.40;12.30;;;;;;;6.83;96.14;103547.28;4974278;28;20060;-78
2022/01/22 12:35:41;;;;;;;28.52;13.00;;;;;;;6.86;96.46;103536.81;5023009;28;20026;-78
2022/01/22 12:38:19;;;;;;;21.23;12.07;;;;;;;6.91;96.18;103535.13;5029672;28;20038;-78
2022/01/22 12:40:46;;;;;;;19.25;10.52;;;;;;;6.85;95.81;103535.94;5018328;28;20030;-80
2022/01/22 12:43:19;;;;;;;18.13;10.90;;;;;;;6.93;95.59;103545.69;5009417;28;20058;-77
2022/01/22 12:45:53;;;;;;;22.10;12.20;;;;;;;6.84;95.55;103536.78;5019428;28;20030;-78
2022/01/22 12:48:19;;;;;;;25.23;12.95;;;;;;;6.88;95.88;103528.06;5018983;28;20517;-77
2022/01/22 12:50:44;;;;;;;20.17;10.48;;;;;;;6.88;95.43;103530.69;5044750;28;20036;-78
2022/01/22 12:53:12;;;;;;;20.98;11.50;;;;;;;6.89;95.74;103528.94;5070609;28;20082;-79
2022/01/22 12:58:22;;;;;;;17.95;11.35;;;;;;;6.81;95.79;103530.59;5071158;28;20044;-78
2022/01/22 13:00:51;;;;;;;21.55;10.50;;;;;;;6.81;95.66;103533.22;5070888;28;20031;-78
2022/01/22 13:03:30;;;;;;;22.77;11.32;;;;;;;6.71;95.84;103537.47;5071167;28;20120;-77